sensor_id;sensor_type;location;lat;lon;timestamp;temperature;humidity
52209;DHT22;38507;53.132;6.394;2023-05-24T00:01:24;7.50;99.90
52209;DHT22;38507;53.132;6.394;2023-05-24T00:03:51;7.50;99.90
52209;DHT22;38507;53.132;6.394;2023-05-24T00:06:20;7.50;99.90
52209;DHT22;38507;53.132;6.394;2023-05-24T00:08:46;7.50;99.90
52209;DHT22;38507;53.132;6.394;2023-05-24T00:11:12;7.50;99.90
52209;DHT22;38507;53.132;6.394;2023-05-24T00:13:37;7.50;99.90
52209;DHT22;38507;53.132;6.394;2023-05-24T00:16:03;7.60;99.90
52209;DHT22;38507;53.132;6.394;2023-05-24T00:18:29;7.60;99.90
52209;DHT22;38507;53.132;6.394;2023-05-24T00:20:56;7.70;99.90
52209;DHT22;38507;53.132;6.394;2023-05-24T00:23:23;7.70;99.90
52209;DHT22;38507;53.132;6.394;2023-05-24T00:25:50;7.70;99.90
52209;DHT22;38507;53.132;6.394;2023-05-24T00:28:16;7.80;99.90
52209;DHT22;38507;53.132;6.394;2023-05-24T00:30:42;7.80;99.90
52209;DHT22;38507;53.132;6.394;2023-05-24T00:33:07;7.90;99.90
52209;DHT22;38507;53.132;6.394;2023-05-24T00:35:33;8.00;99.90
52209;DHT22;38507;53.132;6.394;2023-05-24T00:37:59;8.00;99.90
52209;DHT22;38507;53.132;6.394;2023-05-24T00:40:24;8.00;99.90
52209;DHT22;38507;53.132;6.394;2023-05-24T00:42:50;8.00;99.90
52209;DHT22;38507;53.132;6.394;2023-05-24T00:45:15;8.20;99.90
52209;DHT22;38507;53.132;6.394;2023-05-24T00:47:41;8.00;99.90
52209;DHT22;38507;53.132;6.394;2023-05-24T00:50:09;8.00;99.90
52209;DHT22;38507;53.132;6.394;2023-05-24T00:52:37;8.00;99.90
52209;DHT22;38507;53.132;6.394;2023-05-24T00:55:05;8.00;99.90
52209;DHT22;38507;53.132;6.394;2023-05-24T00:57:31;8.00;99.90
52209;DHT22;38507;53.132;6.394;2023-05-24T00:59:57;8.00;99.90
52209;DHT22;38507;53.132;6.394;2023-05-24T01:02:24;8.00;99.90
52209;DHT22;38507;53.132;6.394;2023-05-24T01:04:50;8.00;99.90
52209;DHT22;38507;53.132;6.394;2023-05-24T01:12:53;7.90;99.90
52209;DHT22;38507;53.132;6.394;2023-05-24T01:15:37;7.90;99.90
52209;DHT22;38507;53.132;6.394;2023-05-24T01:18:12;7.90;99.90
52209;DHT22;38507;53.132;6.394;2023-05-24T01:20:40;7.80;99.90
52209;DHT22;38507;53.132;6.394;2023-05-24T01:26:39;7.80;99.90
52209;DHT22;38507;53.132;6.394;2023-05-24T01:29:07;7.90;99.90
52209;DHT22;38507;53.132;6.394;2023-05-24T01:31:33;8.20;99.90
52209;DHT22;38507;53.132;6.394;2023-05-24T01:34:00;7.80;99.90
52209;DHT22;38507;53.132;6.394;2023-05-24T01:36:26;7.80;99.90
52209;DHT22;38507;53.132;6.394;2023-05-24T01:38:51;7.80;99.90
52209;DHT22;38507;53.132;6.394;2023-05-24T01:41:31;7.80;99.90
52209;DHT22;38507;53.132;6.394;2023-05-24T01:46:36;7.90;99.90
52209;DHT22;38507;53.132;6.394;2023-05-24T01:49:20;7.90;99.90
52209;DHT22;38507;53.132;6.394;2023-05-24T01:52:19;8.00;99.90
52209;DHT22;38507;53.132;6.394;2023-05-24T01:54:51;8.00;99.90
52209;DHT22;38507;53.132;6.394;2023-05-24T01:57:18;8.00;99.90
52209;DHT22;38507;53.132;6.394;2023-05-24T01:59:46;8.10;99.90
52209;DHT22;38507;53.132;6.394;2023-05-24T02:02:12;8.10;99.90
52209;DHT22;38507;53.132;6.394;2023-05-24T02:04:38;8.10;99.90
52209;DHT22;38507;53.132;6.394;2023-05-24T02:07:04;8.10;99.90
52209;DHT22;38507;53.132;6.394;2023-05-24T02:09:29;8.10;99.90
52209;DHT22;38507;53.132;6.394;2023-05-24T02:11:55;8.80;99.90
52209;DHT22;38507;53.132;6.394;2023-05-24T02:14:21;8.20;99.90
52209;DHT22;38507;53.132;6.394;2023-05-24T02:16:46;8.20;99.90
52209;DHT22;38507;53.132;6.394;2023-05-24T02:19:13;8.60;99.90
52209;DHT22;38507;53.132;6.394;2023-05-24T02:21:38;8.40;99.90
52209;DHT22;38507;53.132;6.394;2023-05-24T02:24:05;8.30;99.90
52209;DHT22;38507;53.132;6.394;2023-05-24T02:26:32;8.30;99.90
52209;DHT22;38507;53.132;6.394;2023-05-24T02:28:58;8.30;99.90
52209;DHT22;38507;53.132;6.394;2023-05-24T02:31:23;8.30;99.90
52209;DHT22;38507;53.132;6.394;2023-05-24T02:33:56;8.30;99.90
52209;DHT22;38507;53.132;6.394;2023-05-24T02:36:21;8.90;99.90
52209;DHT22;38507;53.132;6.394;2023-05-24T02:38:48;8.40;99.90
52209;DHT22;38507;53.132;6.394;2023-05-24T02:41:14;8.30;99.90
52209;DHT22;38507;53.132;6.394;2023-05-24T02:43:46;8.30;99.90
52209;DHT22;38507;53.132;6.394;2023-05-24T02:46:12;8.30;99.90
52209;DHT22;38507;53.132;6.394;2023-05-24T02:48:38;8.40;99.90
52209;DHT22;38507;53.132;6.394;2023-05-24T02:51:03;8.40;99.90
52209;DHT22;38507;53.132;6.394;2023-05-24T02:53:32;8.90;99.90
52209;DHT22;38507;53.132;6.394;2023-05-24T02:55:58;8.40;99.90
52209;DHT22;38507;53.132;6.394;2023-05-24T02:58:24;8.40;99.90
52209;DHT22;38507;53.132;6.394;2023-05-24T03:00:53;8.40;99.90
52209;DHT22;38507;53.132;6.394;2023-05-24T03:03:19;8.40;99.90
52209;DHT22;38507;53.132;6.394;2023-05-24T03:05:44;8.30;99.90
52209;DHT22;38507;53.132;6.394;2023-05-24T03:08:10;8.30;99.90
52209;DHT22;38507;53.132;6.394;2023-05-24T03:10:36;8.20;99.90
52209;DHT22;38507;53.132;6.394;2023-05-24T03:13:01;8.30;99.90
52209;DHT22;38507;53.132;6.394;2023-05-24T03:15:27;8.20;99.90
52209;DHT22;38507;53.132;6.394;2023-05-24T03:17:52;8.30;99.90
52209;DHT22;38507;53.132;6.394;2023-05-24T03:20:18;8.50;99.90
52209;DHT22;38507;53.132;6.394;2023-05-24T03:22:45;8.30;99.90
52209;DHT22;38507;53.132;6.394;2023-05-24T03:25:11;8.30;99.90
52209;DHT22;38507;53.132;6.394;2023-05-24T03:27:37;8.30;99.90
52209;DHT22;38507;53.132;6.394;2023-05-24T03:30:03;8.40;99.90
52209;DHT22;38507;53.132;6.394;2023-05-24T03:32:31;8.40;99.90
52209;DHT22;38507;53.132;6.394;2023-05-24T03:34:57;8.40;99.90
52209;DHT22;38507;53.132;6.394;2023-05-24T03:37:25;8.40;99.90
52209;DHT22;38507;53.132;6.394;2023-05-24T03:39:50;8.50;99.90
52209;DHT22;38507;53.132;6.394;2023-05-24T03:42:16;8.60;99.90
52209;DHT22;38507;53.132;6.394;2023-05-24T03:44:42;8.50;99.90
52209;DHT22;38507;53.132;6.394;2023-05-24T03:47:08;8.60;99.90
52209;DHT22;38507;53.132;6.394;2023-05-24T03:49:34;8.60;99.90
52209;DHT22;38507;53.132;6.394;2023-05-24T03:51:59;8.60;99.90
52209;DHT22;38507;53.132;6.394;2023-05-24T03:54:25;8.70;99.90
52209;DHT22;38507;53.132;6.394;2023-05-24T03:56:51;8.70;99.90
52209;DHT22;38507;53.132;6.394;2023-05-24T03:59:18;8.70;99.90
52209;DHT22;38507;53.132;6.394;2023-05-24T04:01:43;8.70;99.90
52209;DHT22;38507;53.132;6.394;2023-05-24T04:04:09;8.80;99.90
52209;DHT22;38507;53.132;6.394;2023-05-24T04:06:35;8.80;99.90
52209;DHT22;38507;53.132;6.394;2023-05-24T04:09:01;8.80;99.90
52209;DHT22;38507;53.132;6.394;2023-05-24T04:11:29;8.80;99.90
52209;DHT22;38507;53.132;6.394;2023-05-24T04:13:55;8.90;99.90
52209;DHT22;38507;53.132;6.394;2023-05-24T04:16:22;9.10;99.90
52209;DHT22;38507;53.132;6.394;2023-05-24T04:18:55;9.00;99.90
52209;DHT22;38507;53.132;6.394;2023-05-24T04:21:21;9.00;99.90
52209;DHT22;38507;53.132;6.394;2023-05-24T04:23:47;9.00;99.90
52209;DHT22;38507;53.132;6.394;2023-05-24T04:26:13;9.00;99.90
52209;DHT22;38507;53.132;6.394;2023-05-24T04:28:40;9.00;99.90
52209;DHT22;38507;53.132;6.394;2023-05-24T04:31:06;9.00;99.90
52209;DHT22;38507;53.132;6.394;2023-05-24T04:33:32;9.10;99.90
52209;DHT22;38507;53.132;6.394;2023-05-24T04:35:58;9.10;99.90
52209;DHT22;38507;53.132;6.394;2023-05-24T04:38:28;9.20;99.90
52209;DHT22;38507;53.132;6.394;2023-05-24T04:40:59;9.30;99.90
52209;DHT22;38507;53.132;6.394;2023-05-24T04:43:25;9.30;99.90
52209;DHT22;38507;53.132;6.394;2023-05-24T04:45:52;9.30;99.90
52209;DHT22;38507;53.132;6.394;2023-05-24T04:48:22;9.40;99.90
52209;DHT22;38507;53.132;6.394;2023-05-24T04:50:53;9.40;99.90
52209;DHT22;38507;53.132;6.394;2023-05-24T04:53:19;9.50;99.90
52209;DHT22;38507;53.132;6.394;2023-05-24T04:55:46;9.60;99.90
52209;DHT22;38507;53.132;6.394;2023-05-24T04:58:12;9.60;99.90
52209;DHT22;38507;53.132;6.394;2023-05-24T05:00:38;9.70;99.90
52209;DHT22;38507;53.132;6.394;2023-05-24T05:03:04;9.80;99.90
52209;DHT22;38507;53.132;6.394;2023-05-24T05:05:29;9.80;99.90
52209;DHT22;38507;53.132;6.394;2023-05-24T05:07:55;9.90;99.90
52209;DHT22;38507;53.132;6.394;2023-05-24T05:10:22;10.00;99.90
52209;DHT22;38507;53.132;6.394;2023-05-24T05:12:47;10.10;99.90
52209;DHT22;38507;53.132;6.394;2023-05-24T05:15:13;10.10;99.90
52209;DHT22;38507;53.132;6.394;2023-05-24T05:17:39;10.10;99.90
52209;DHT22;38507;53.132;6.394;2023-05-24T05:20:05;10.40;99.90
52209;DHT22;38507;53.132;6.394;2023-05-24T05:22:31;10.10;99.90
52209;DHT22;38507;53.132;6.394;2023-05-24T05:24:57;10.20;99.90
52209;DHT22;38507;53.132;6.394;2023-05-24T05:27:22;10.20;99.90
52209;DHT22;38507;53.132;6.394;2023-05-24T05:29:48;10.30;99.90
52209;DHT22;38507;53.132;6.394;2023-05-24T05:32:14;10.20;99.90
52209;DHT22;38507;53.132;6.394;2023-05-24T05:34:40;10.30;99.90
52209;DHT22;38507;53.132;6.394;2023-05-24T05:37:06;10.30;99.90
52209;DHT22;38507;53.132;6.394;2023-05-24T05:39:32;10.30;99.90
52209;DHT22;38507;53.132;6.394;2023-05-24T05:41:57;10.40;99.90
52209;DHT22;38507;53.132;6.394;2023-05-24T05:44:23;10.40;99.90
52209;DHT22;38507;53.132;6.394;2023-05-24T05:46:49;10.40;99.90
52209;DHT22;38507;53.132;6.394;2023-05-24T05:49:14;10.50;99.90
52209;DHT22;38507;53.132;6.394;2023-05-24T05:51:45;10.50;99.90
52209;DHT22;38507;53.132;6.394;2023-05-24T05:54:11;10.50;99.90
52209;DHT22;38507;53.132;6.394;2023-05-24T05:56:43;10.50;99.90
52209;DHT22;38507;53.132;6.394;2023-05-24T05:59:11;10.50;99.90
52209;DHT22;38507;53.132;6.394;2023-05-24T06:01:37;10.50;99.90
52209;DHT22;38507;53.132;6.394;2023-05-24T06:04:03;10.50;99.90
52209;DHT22;38507;53.132;6.394;2023-05-24T06:06:29;10.60;99.90
52209;DHT22;38507;53.132;6.394;2023-05-24T06:08:54;10.50;99.90
52209;DHT22;38507;53.132;6.394;2023-05-24T06:11:20;10.60;99.90
52209;DHT22;38507;53.132;6.394;2023-05-24T06:13:46;10.60;99.90
52209;DHT22;38507;53.132;6.394;2023-05-24T06:16:11;10.60;99.90
52209;DHT22;38507;53.132;6.394;2023-05-24T06:18:38;10.70;99.90
52209;DHT22;38507;53.132;6.394;2023-05-24T06:21:05;10.70;99.90
52209;DHT22;38507;53.132;6.394;2023-05-24T06:23:35;10.80;99.90
52209;DHT22;38507;53.132;6.394;2023-05-24T06:26:01;10.80;99.90
52209;DHT22;38507;53.132;6.394;2023-05-24T06:28:26;10.90;99.90
52209;DHT22;38507;53.132;6.394;2023-05-24T06:30:52;10.90;99.90
52209;DHT22;38507;53.132;6.394;2023-05-24T06:33:17;10.90;99.90
52209;DHT22;38507;53.132;6.394;2023-05-24T06:35:43;11.00;99.90
52209;DHT22;38507;53.132;6.394;2023-05-24T06:38:09;11.00;99.90
52209;DHT22;38507;53.132;6.394;2023-05-24T06:40:34;11.10;99.90
52209;DHT22;38507;53.132;6.394;2023-05-24T06:43:00;11.20;99.90
52209;DHT22;38507;53.132;6.394;2023-05-24T06:45:26;11.30;99.90
52209;DHT22;38507;53.132;6.394;2023-05-24T06:47:51;11.30;99.90
52209;DHT22;38507;53.132;6.394;2023-05-24T06:50:17;11.40;99.90
52209;DHT22;38507;53.132;6.394;2023-05-24T06:52:43;11.40;99.90
52209;DHT22;38507;53.132;6.394;2023-05-24T06:55:08;11.50;99.90
52209;DHT22;38507;53.132;6.394;2023-05-24T06:57:35;11.50;99.90
52209;DHT22;38507;53.132;6.394;2023-05-24T07:00:00;11.60;99.90
52209;DHT22;38507;53.132;6.394;2023-05-24T07:02:26;11.30;99.90
52209;DHT22;38507;53.132;6.394;2023-05-24T07:04:53;11.80;99.90
52209;DHT22;38507;53.132;6.394;2023-05-24T07:07:19;11.90;99.90
52209;DHT22;38507;53.132;6.394;2023-05-24T07:09:45;12.00;99.90
52209;DHT22;38507;53.132;6.394;2023-05-24T07:12:12;12.10;99.90
52209;DHT22;38507;53.132;6.394;2023-05-24T07:14:37;12.20;99.90
52209;DHT22;38507;53.132;6.394;2023-05-24T07:17:03;12.30;99.90
52209;DHT22;38507;53.132;6.394;2023-05-24T07:19:29;12.30;99.90
52209;DHT22;38507;53.132;6.394;2023-05-24T07:21:55;12.40;99.90
52209;DHT22;38507;53.132;6.394;2023-05-24T07:24:21;12.70;99.90
52209;DHT22;38507;53.132;6.394;2023-05-24T07:26:47;12.70;99.90
52209;DHT22;38507;53.132;6.394;2023-05-24T07:29:13;12.70;99.90
52209;DHT22;38507;53.132;6.394;2023-05-24T07:31:39;12.80;99.90
52209;DHT22;38507;53.132;6.394;2023-05-24T07:34:04;12.90;99.90
52209;DHT22;38507;53.132;6.394;2023-05-24T07:36:30;13.00;99.90
52209;DHT22;38507;53.132;6.394;2023-05-24T07:38:57;13.00;99.90
52209;DHT22;38507;53.132;6.394;2023-05-24T07:41:25;12.90;99.90
52209;DHT22;38507;53.132;6.394;2023-05-24T07:43:55;13.10;99.90
52209;DHT22;38507;53.132;6.394;2023-05-24T07:46:21;13.00;99.90
52209;DHT22;38507;53.132;6.394;2023-05-24T07:48:47;13.00;99.90
52209;DHT22;38507;53.132;6.394;2023-05-24T07:51:12;13.10;99.90
52209;DHT22;38507;53.132;6.394;2023-05-24T07:53:38;13.00;99.90
52209;DHT22;38507;53.132;6.394;2023-05-24T07:56:04;13.10;99.90
52209;DHT22;38507;53.132;6.394;2023-05-24T07:58:32;13.10;99.90
52209;DHT22;38507;53.132;6.394;2023-05-24T08:00:58;13.20;99.90
52209;DHT22;38507;53.132;6.394;2023-05-24T08:03:23;13.10;99.90
52209;DHT22;38507;53.132;6.394;2023-05-24T08:05:50;13.10;99.90
52209;DHT22;38507;53.132;6.394;2023-05-24T08:08:16;13.10;99.90
52209;DHT22;38507;53.132;6.394;2023-05-24T08:10:42;13.20;99.90
52209;DHT22;38507;53.132;6.394;2023-05-24T08:13:07;13.20;99.90
52209;DHT22;38507;53.132;6.394;2023-05-24T08:15:33;13.20;99.90
52209;DHT22;38507;53.132;6.394;2023-05-24T08:17:59;13.30;99.90
52209;DHT22;38507;53.132;6.394;2023-05-24T08:20:24;13.20;99.90
52209;DHT22;38507;53.132;6.394;2023-05-24T08:22:50;13.20;99.90
52209;DHT22;38507;53.132;6.394;2023-05-24T08:25:16;13.20;99.90
52209;DHT22;38507;53.132;6.394;2023-05-24T08:27:41;13.30;99.90
52209;DHT22;38507;53.132;6.394;2023-05-24T08:30:07;13.40;99.90
52209;DHT22;38507;53.132;6.394;2023-05-24T08:32:33;13.50;99.90
52209;DHT22;38507;53.132;6.394;2023-05-24T08:34:59;13.50;99.90
52209;DHT22;38507;53.132;6.394;2023-05-24T08:37:24;13.50;99.90
52209;DHT22;38507;53.132;6.394;2023-05-24T08:39:50;13.70;99.90
52209;DHT22;38507;53.132;6.394;2023-05-24T08:42:16;13.60;99.90
52209;DHT22;38507;53.132;6.394;2023-05-24T08:44:52;13.80;99.90
52209;DHT22;38507;53.132;6.394;2023-05-24T08:47:22;13.90;99.90
52209;DHT22;38507;53.132;6.394;2023-05-24T08:49:50;14.00;99.90
52209;DHT22;38507;53.132;6.394;2023-05-24T08:52:16;14.10;99.90
52209;DHT22;38507;53.132;6.394;2023-05-24T08:54:42;14.00;99.90
52209;DHT22;38507;53.132;6.394;2023-05-24T08:57:09;14.00;99.90
52209;DHT22;38507;53.132;6.394;2023-05-24T08:59:39;14.10;99.90
52209;DHT22;38507;53.132;6.394;2023-05-24T09:02:07;14.10;99.90
52209;DHT22;38507;53.132;6.394;2023-05-24T09:04:35;14.10;99.90
52209;DHT22;38507;53.132;6.394;2023-05-24T09:07:02;14.10;99.90
52209;DHT22;38507;53.132;6.394;2023-05-24T09:09:29;14.10;99.90
52209;DHT22;38507;53.132;6.394;2023-05-24T09:11:57;14.10;99.90
52209;DHT22;38507;53.132;6.394;2023-05-24T09:14:26;14.20;99.90
52209;DHT22;38507;53.132;6.394;2023-05-24T09:16:52;14.20;99.90
52209;DHT22;38507;53.132;6.394;2023-05-24T09:19:18;14.30;99.90
52209;DHT22;38507;53.132;6.394;2023-05-24T09:21:44;14.30;99.90
52209;DHT22;38507;53.132;6.394;2023-05-24T09:24:10;14.30;99.90
52209;DHT22;38507;53.132;6.394;2023-05-24T09:26:36;14.40;99.90
52209;DHT22;38507;53.132;6.394;2023-05-24T09:29:06;14.70;99.90
52209;DHT22;38507;53.132;6.394;2023-05-24T09:31:33;14.80;99.90
52209;DHT22;38507;53.132;6.394;2023-05-24T09:33:59;14.80;99.90
52209;DHT22;38507;53.132;6.394;2023-05-24T09:36:27;14.90;99.90
52209;DHT22;38507;53.132;6.394;2023-05-24T09:39:07;14.80;99.90
52209;DHT22;38507;53.132;6.394;2023-05-24T09:41:37;14.80;99.90
52209;DHT22;38507;53.132;6.394;2023-05-24T09:44:03;15.00;99.90
52209;DHT22;38507;53.132;6.394;2023-05-24T09:46:34;15.20;99.90
52209;DHT22;38507;53.132;6.394;2023-05-24T09:49:01;15.10;99.90
52209;DHT22;38507;53.132;6.394;2023-05-24T09:51:28;15.30;99.90
52209;DHT22;38507;53.132;6.394;2023-05-24T09:54:00;15.20;99.90
52209;DHT22;38507;53.132;6.394;2023-05-24T09:56:26;15.40;99.90
52209;DHT22;38507;53.132;6.394;2023-05-24T09:58:52;15.50;99.90
52209;DHT22;38507;53.132;6.394;2023-05-24T10:01:22;15.50;99.90
52209;DHT22;38507;53.132;6.394;2023-05-24T10:06:18;15.50;99.90
52209;DHT22;38507;53.132;6.394;2023-05-24T10:08:46;15.70;99.90
52209;DHT22;38507;53.132;6.394;2023-05-24T10:11:13;15.70;99.90
52209;DHT22;38507;53.132;6.394;2023-05-24T10:13:38;15.90;99.90
52209;DHT22;38507;53.132;6.394;2023-05-24T10:16:04;15.90;99.90
52209;DHT22;38507;53.132;6.394;2023-05-24T10:18:30;16.10;99.90
52209;DHT22;38507;53.132;6.394;2023-05-24T10:20:56;16.10;99.90
52209;DHT22;38507;53.132;6.394;2023-05-24T10:23:23;16.00;99.90
52209;DHT22;38507;53.132;6.394;2023-05-24T10:25:55;16.00;99.90
52209;DHT22;38507;53.132;6.394;2023-05-24T10:28:25;15.90;99.90
52209;DHT22;38507;53.132;6.394;2023-05-24T10:31:10;16.20;99.90
52209;DHT22;38507;53.132;6.394;2023-05-24T10:33:37;16.20;99.90
52209;DHT22;38507;53.132;6.394;2023-05-24T10:36:05;16.20;99.90
52209;DHT22;38507;53.132;6.394;2023-05-24T10:38:32;16.10;99.90
52209;DHT22;38507;53.132;6.394;2023-05-24T10:40:58;16.60;99.90
52209;DHT22;38507;53.132;6.394;2023-05-24T10:43:25;16.40;99.90
52209;DHT22;38507;53.132;6.394;2023-05-24T10:45:50;16.40;99.90
52209;DHT22;38507;53.132;6.394;2023-05-24T10:50:48;16.40;99.90
52209;DHT22;38507;53.132;6.394;2023-05-24T10:55:57;16.40;99.90
52209;DHT22;38507;53.132;6.394;2023-05-24T11:00:58;16.30;99.90
52209;DHT22;38507;53.132;6.394;2023-05-24T11:03:23;16.10;99.90
52209;DHT22;38507;53.132;6.394;2023-05-24T11:05:53;16.10;99.90
52209;DHT22;38507;53.132;6.394;2023-05-24T11:08:29;16.20;99.90
52209;DHT22;38507;53.132;6.394;2023-05-24T11:11:25;16.50;99.90
52209;DHT22;38507;53.132;6.394;2023-05-24T11:13:55;16.50;99.90
52209;DHT22;38507;53.132;6.394;2023-05-24T11:16:38;16.40;99.90
52209;DHT22;38507;53.132;6.394;2023-05-24T11:19:31;16.40;99.90
52209;DHT22;38507;53.132;6.394;2023-05-24T11:21:58;16.50;99.90
52209;DHT22;38507;53.132;6.394;2023-05-24T11:24:25;16.30;99.90
52209;DHT22;38507;53.132;6.394;2023-05-24T11:26:51;16.30;99.90
52209;DHT22;38507;53.132;6.394;2023-05-24T11:29:17;16.70;99.90
52209;DHT22;38507;53.132;6.394;2023-05-24T11:31:53;16.70;99.90
52209;DHT22;38507;53.132;6.394;2023-05-24T11:34:20;16.60;99.90
52209;DHT22;38507;53.132;6.394;2023-05-24T11:36:46;16.80;99.90
52209;DHT22;38507;53.132;6.394;2023-05-24T11:39:13;16.90;99.90
52209;DHT22;38507;53.132;6.394;2023-05-24T11:41:39;17.10;99.90
52209;DHT22;38507;53.132;6.394;2023-05-24T11:44:07;17.50;99.90
52209;DHT22;38507;53.132;6.394;2023-05-24T11:46:33;17.70;99.90
52209;DHT22;38507;53.132;6.394;2023-05-24T11:48:59;17.70;99.90
52209;DHT22;38507;53.132;6.394;2023-05-24T11:51:30;17.50;99.90
52209;DHT22;38507;53.132;6.394;2023-05-24T11:53:56;17.60;99.90
52209;DHT22;38507;53.132;6.394;2023-05-24T11:56:24;17.60;99.90
52209;DHT22;38507;53.132;6.394;2023-05-24T11:58:50;17.40;99.90
52209;DHT22;38507;53.132;6.394;2023-05-24T12:01:27;17.00;99.90
52209;DHT22;38507;53.132;6.394;2023-05-24T12:03:53;16.90;99.90
52209;DHT22;38507;53.132;6.394;2023-05-24T12:06:19;17.10;99.90
52209;DHT22;38507;53.132;6.394;2023-05-24T12:08:46;16.90;99.90
52209;DHT22;38507;53.132;6.394;2023-05-24T12:11:13;16.70;99.90
52209;DHT22;38507;53.132;6.394;2023-05-24T12:13:39;16.60;99.90
52209;DHT22;38507;53.132;6.394;2023-05-24T12:16:05;16.60;99.90
52209;DHT22;38507;53.132;6.394;2023-05-24T12:18:31;16.50;99.90
52209;DHT22;38507;53.132;6.394;2023-05-24T12:20:57;16.40;99.90
52209;DHT22;38507;53.132;6.394;2023-05-24T12:23:24;16.40;99.90
52209;DHT22;38507;53.132;6.394;2023-05-24T12:25:57;16.30;99.90
52209;DHT22;38507;53.132;6.394;2023-05-24T12:28:24;16.30;99.90
52209;DHT22;38507;53.132;6.394;2023-05-24T12:30:49;16.20;99.90
52209;DHT22;38507;53.132;6.394;2023-05-24T12:33:19;16.00;99.90
52209;DHT22;38507;53.132;6.394;2023-05-24T12:35:46;16.10;99.90
52209;DHT22;38507;53.132;6.394;2023-05-24T12:38:12;16.00;99.90
52209;DHT22;38507;53.132;6.394;2023-05-24T12:40:41;16.00;99.90
52209;DHT22;38507;53.132;6.394;2023-05-24T12:43:08;15.90;99.90
52209;DHT22;38507;53.132;6.394;2023-05-24T12:45:35;15.80;99.90
52209;DHT22;38507;53.132;6.394;2023-05-24T12:48:01;15.80;99.90
52209;DHT22;38507;53.132;6.394;2023-05-24T12:50:29;15.70;99.90
52209;DHT22;38507;53.132;6.394;2023-05-24T12:52:56;15.70;99.90
52209;DHT22;38507;53.132;6.394;2023-05-24T12:55:23;15.70;99.90
52209;DHT22;38507;53.132;6.394;2023-05-24T12:57:50;15.70;99.90
52209;DHT22;38507;53.132;6.394;2023-05-24T13:00:24;15.70;99.90
52209;DHT22;38507;53.132;6.394;2023-05-24T13:02:57;15.80;99.90
52209;DHT22;38507;53.132;6.394;2023-05-24T13:05:24;15.80;99.90
52209;DHT22;38507;53.132;6.394;2023-05-24T13:07:51;15.70;99.90
52209;DHT22;38507;53.132;6.394;2023-05-24T13:10:17;15.70;99.90
52209;DHT22;38507;53.132;6.394;2023-05-24T13:12:46;15.90;99.90
52209;DHT22;38507;53.132;6.394;2023-05-24T13:15:12;15.90;99.90
52209;DHT22;38507;53.132;6.394;2023-05-24T13:17:39;15.90;99.90
52209;DHT22;38507;53.132;6.394;2023-05-24T13:20:06;15.90;99.90
52209;DHT22;38507;53.132;6.394;2023-05-24T13:22:35;16.00;99.90
52209;DHT22;38507;53.132;6.394;2023-05-24T13:25:02;16.00;99.90
52209;DHT22;38507;53.132;6.394;2023-05-24T13:27:28;16.00;99.90
52209;DHT22;38507;53.132;6.394;2023-05-24T13:29:54;16.10;99.90
52209;DHT22;38507;53.132;6.394;2023-05-24T13:32:20;16.10;99.90
52209;DHT22;38507;53.132;6.394;2023-05-24T13:34:46;16.20;99.90
52209;DHT22;38507;53.132;6.394;2023-05-24T13:37:12;16.20;99.90
52209;DHT22;38507;53.132;6.394;2023-05-24T13:39:37;16.20;99.90
52209;DHT22;38507;53.132;6.394;2023-05-24T13:42:03;16.30;99.90
52209;DHT22;38507;53.132;6.394;2023-05-24T13:44:30;16.60;99.90
52209;DHT22;38507;53.132;6.394;2023-05-24T13:46:56;16.80;99.90
52209;DHT22;38507;53.132;6.394;2023-05-24T13:49:22;16.50;99.90
52209;DHT22;38507;53.132;6.394;2023-05-24T13:51:48;16.80;99.90
52209;DHT22;38507;53.132;6.394;2023-05-24T13:54:14;17.10;99.90
52209;DHT22;38507;53.132;6.394;2023-05-24T13:56:41;17.50;99.90
52209;DHT22;38507;53.132;6.394;2023-05-24T13:59:08;17.70;99.90
52209;DHT22;38507;53.132;6.394;2023-05-24T14:01:34;17.70;99.90
52209;DHT22;38507;53.132;6.394;2023-05-24T14:04:04;18.00;99.90
52209;DHT22;38507;53.132;6.394;2023-05-24T14:06:31;18.20;99.90
52209;DHT22;38507;53.132;6.394;2023-05-24T14:08:57;18.40;99.90
52209;DHT22;38507;53.132;6.394;2023-05-24T14:11:23;18.60;99.90
52209;DHT22;38507;53.132;6.394;2023-05-24T14:13:50;18.90;99.90
52209;DHT22;38507;53.132;6.394;2023-05-24T14:16:16;19.00;99.90
52209;DHT22;38507;53.132;6.394;2023-05-24T14:18:42;18.80;99.90
52209;DHT22;38507;53.132;6.394;2023-05-24T14:21:07;18.60;99.90
52209;DHT22;38507;53.132;6.394;2023-05-24T14:23:33;18.40;99.90
52209;DHT22;38507;53.132;6.394;2023-05-24T14:25:59;18.20;99.90
52209;DHT22;38507;53.132;6.394;2023-05-24T14:28:24;18.50;99.90
52209;DHT22;38507;53.132;6.394;2023-05-24T14:30:50;18.20;99.90
52209;DHT22;38507;53.132;6.394;2023-05-24T14:33:16;18.40;99.90
52209;DHT22;38507;53.132;6.394;2023-05-24T14:35:42;18.40;99.90
52209;DHT22;38507;53.132;6.394;2023-05-24T14:38:09;18.70;99.90
52209;DHT22;38507;53.132;6.394;2023-05-24T14:40:36;19.00;99.90
52209;DHT22;38507;53.132;6.394;2023-05-24T14:43:04;19.00;99.90
52209;DHT22;38507;53.132;6.394;2023-05-24T14:45:31;19.00;99.90
52209;DHT22;38507;53.132;6.394;2023-05-24T14:48:00;18.90;99.90
52209;DHT22;38507;53.132;6.394;2023-05-24T14:50:26;19.10;99.90
52209;DHT22;38507;53.132;6.394;2023-05-24T14:52:52;19.30;99.90
52209;DHT22;38507;53.132;6.394;2023-05-24T14:55:18;19.20;99.90
52209;DHT22;38507;53.132;6.394;2023-05-24T14:57:43;18.90;99.90
52209;DHT22;38507;53.132;6.394;2023-05-24T15:00:10;18.90;99.90
52209;DHT22;38507;53.132;6.394;2023-05-24T15:02:36;18.80;99.90
52209;DHT22;38507;53.132;6.394;2023-05-24T15:05:02;18.50;99.90
52209;DHT22;38507;53.132;6.394;2023-05-24T15:07:28;18.50;99.90
52209;DHT22;38507;53.132;6.394;2023-05-24T15:09:54;18.50;99.90
52209;DHT22;38507;53.132;6.394;2023-05-24T15:12:19;18.70;99.90
52209;DHT22;38507;53.132;6.394;2023-05-24T15:14:45;18.80;99.90
52209;DHT22;38507;53.132;6.394;2023-05-24T15:17:11;18.70;99.90
52209;DHT22;38507;53.132;6.394;2023-05-24T15:19:37;18.70;99.90
52209;DHT22;38507;53.132;6.394;2023-05-24T15:22:02;18.50;99.90
52209;DHT22;38507;53.132;6.394;2023-05-24T15:24:29;18.40;99.90
52209;DHT22;38507;53.132;6.394;2023-05-24T15:26:54;18.20;99.90
52209;DHT22;38507;53.132;6.394;2023-05-24T15:29:21;18.10;99.90
52209;DHT22;38507;53.132;6.394;2023-05-24T15:31:47;18.20;99.90
52209;DHT22;38507;53.132;6.394;2023-05-24T15:34:12;18.40;99.90
52209;DHT22;38507;53.132;6.394;2023-05-24T15:36:38;18.80;99.90
52209;DHT22;38507;53.132;6.394;2023-05-24T15:39:05;19.00;99.90
52209;DHT22;38507;53.132;6.394;2023-05-24T15:41:31;19.20;99.90
52209;DHT22;38507;53.132;6.394;2023-05-24T15:43:56;19.30;99.90
52209;DHT22;38507;53.132;6.394;2023-05-24T15:46:32;19.60;99.90
52209;DHT22;38507;53.132;6.394;2023-05-24T15:48:57;19.70;99.90
52209;DHT22;38507;53.132;6.394;2023-05-24T15:51:23;19.40;99.90
52209;DHT22;38507;53.132;6.394;2023-05-24T15:53:48;19.10;99.90
52209;DHT22;38507;53.132;6.394;2023-05-24T15:56:14;18.90;99.90